EPLLEPPO

Guest
Details From EPLL - LODZ LUBLINEK
To EPPO - LAWICA
Flight Number -
Tags generated
Created
Modified
Stats Distance 104 nm / 192 km
Max Altitude 0 ft / 0 m
Waypoints 3
Social Downloads 0
Likes 0
Share VATSIM

Download

Looking for another format? Having issues loading an existing format? Contact us
Advertisement - Login to hide

Notes

Basic altitude profile: - Ascent Rate: 2500ft/min - Ascent Speed: 250kts - Cruise Altitude: 130ft - Cruise Speed: 270kts - Descent Rate: 1500ft/min - Descent Speed: 250kts Options: - Use NATs: yes - Use PACOTS: yes - Use low airways: yes - Use high airways: yes

Route

EPLL LAW EPPO

ID Type Via Altitude Latitude Longitude Leg Dist Tot Dist Heading (true) Name
O EPLL APT - 0 ft / 0 m 51.72008˚ 19.39533˚ - 0 nm - LODZ LUBLINEK
LAW VOR - 0 ft / 0 m 52.42236˚ 16.83017˚ 103 nm 103 nm 295° / 293° POZNAN VOR-DME
O EPPO APT - 0 ft / 0 m 52.42157˚ 16.82355˚ 0 nm 103 nm 259° / 259° LAWICA

Altitude Profile

Advertisement - Login to hide

EPLL

Details ICAO EPLL (LCJ)
Name LODZ LUBLINEK
Region Poland
Timezone Europe/Warsaw (UTC+1.0)
Stats Elevation 606 ft / 185 m (AMSL)
Location 51.720081° 19.395332°
Runways 2
Magnetic Variation 5.331° E

METAR

EPLL 170000Z 24008KT 4200 BR OVC005 01/M00 Q1010

Decode

TAF

TAF EPLL 162330Z 1700/1724 24005KT 4000 BR BKN010 TEMPO 1700/1710 2000 -SNRA BR BKN006 PROB40 TEMPO 1700/1710 1400 -SN BR OVC003 BECMG 1710/1713 SCT020 BECMG 1715/1718 2000 BR

Decode

Departure Runways

ID Width Length Bearing (true) Bearing (mag) Surface Threshold Offset Overrun Length
07L 148 ft / 45 m 8,184 ft / 2,495 m 70.76° 65.43° Concrete 0 ft / 0 m 0 ft / 0 m
07R 574 ft / 175 m 2,299 ft / 701 m 70.78° 65.45° Grass 0 ft / 0 m 0 ft / 0 m
25L 574 ft / 175 m 2,299 ft / 701 m 250.78° 245.45° Grass 0 ft / 0 m 0 ft / 0 m
25R 148 ft / 45 m 8,184 ft / 2,495 m 250.79° 245.46° Concrete 0 ft / 0 m 0 ft / 0 m

EPPO

Details ICAO EPPO (POZ)
Name LAWICA
Region Poland
Timezone Europe/Warsaw (UTC+1.0)
Stats Elevation 308 ft / 94 m (AMSL)
Location 52.421566° 16.823549°
Runways 1
Magnetic Variation 4.736° E

METAR

EPPO 170000Z 24006KT 7000 OVC006 02/01 Q1010 R10/29//95

Decode

TAF

TAF EPPO 162330Z 1700/1724 26006KT 5000 BR BKN005 BKN015 TEMPO 1700/1718 3000 -RA BR BKN003 BKN010 PROB30 TEMPO 1700/1712 1500 SHRASN BKN010CB

Decode

Destination Runways

ID Width Length Bearing (true) Bearing (mag) Surface Threshold Offset Overrun Length
11 164 ft / 50 m 8,153 ft / 2,485 m 107.57° 102.83° Asphalt 0 ft / 0 m 0 ft / 0 m
29 164 ft / 50 m 8,153 ft / 2,485 m 287.59° 282.85° Asphalt 0 ft / 0 m 0 ft / 0 m

Approach Navaids

Runway Type Ident Frequency Range Bearing (true) Bearing (mag) Slope Elevation
29 Localiser POZ 110.30 MHz 18 nm / 33 km 287.57° 282.83° - 308 ft / 94 m (AMSL)
29 Glidescope POZ 110.30 MHz 10 nm / 19 km 287.58° 282.84° 3.00° 308 ft / 94 m (AMSL)
29 DME POZ 110.30 MHz 18 nm / 33 km - - - 331 ft / 101 m (AMSL)

Popular Alternatives